الصفحة الرئيسية
METAR-TAF:

METAR-TAF

مطار :

مطار العريش الدولي

العريش, مصر

دائرة عرض: 31-05N, خط طول: 033-49E, ارتفاع: 31 متر

METAR: مفقودة

زمن: 23:54 (21:54 UTC)

توقعات

تاريخ ووقت الإصدار 4ساعات و 54 دقيقة قبل الساعة 17:00UTC
التوقعات صالحة من13 الساعة 18 UTC إلى 14 الساعة 24 UTC
ريح 12 عقدة من الغرب/الجنوب الغربي
الرؤية 10 كم أو أكثر
غيوم متفرقة على ارتفاع 2000 قدم

TAF: HEAR 131700Z 1318/1424 25012KT 9999 SCT020

أرصاد الطقس والتوقعات من أكثر من 4000 مطار (تقارير الطقس للمطار METAR والتنبؤ بالطقس بالمطارTAF).

المحطات المتاحة هي النقط الصفراء والحمراء على الخريطة.

حرك المؤشر فوق النقطة لمعرفة اسم المحطة.

ثم انقر لمعرفة أرصاد وتوقعات الطقس.

لتغيير الخارطة: اضغط على الأزرار الخضراء مع رمز الصليب الأسود للتكبير. على الزر الأخضر مع شرطة للتصغير، أو على الأسهم الخضراء للخرائط المجاورة.


METAR-TAF: